Santiago, Chile

8:44 AM CLT on July 04, 2015 (GMT -0300)
Arturo Merino Benitez International | | Change Station
CLOSE
Current Station
Airport
Location: Santiago,
Elevation: 1562 ft
Nearby Weather Stations

Elev 1562 ft 33.39 °S, 70.79 °W | Updated 44 minutes ago

Clear
Clear
32 °F
Feels Like 32 °F
N
2
Wind Variable Wind from Variable

Today
High -- | Low -- °F
--% Chance of Precip.
Yesterday
High -- | Low -- °F
Precip. -- in
8:47 AM 6:47 PM
Waning Gibbous, 93% visible
Pressure 29.89 in
Visibility 5.0 miles
Clouds
Dew Point 19 °F
Humidity 60%
Rainfall 0.00 in
Snow Depth Not available.
UV Not available.
Pollen Not available.
Air Quality Not available.
Flu Activity Not available.
METAR SCEL 041100Z VRB02KT 8000 NSC M00/M07 Q1012 NOSIG

More Conditions Fewer Conditions

Pressure 29.89 in
Visibility 5.0 miles
Clouds
Dew Point 19 °F
Humidity 60%
Rainfall 0.00 in
Snow Depth Not available.
UV Not available.
Pollen Not available.
Air Quality Not available.
Flu Activity Not available.
METAR SCEL 041100Z VRB02KT 8000 NSC M00/M07 Q1012 NOSIG

More Conditions Fewer Conditions

10-Day Weather Forecast

×

Almanac

Astronomy

Jul. 04, 2015 Rise Set
Actual Time
Civil Twilight
Nautical Twilight
Astronomical Twilight
Moon
Length Of Visible Light
Length of Day
Tomorrow will be .
, % of the Moon is Illuminated

Today's Extremes

Country Highs Country Lows

Community

WunderPhotos

Upload Photos

1,834,939 photos uploaded!

WunderBlogs® & News

Nearby

Air Quality

  Air Quality AQ Index Pollutant
Not available.

Snow Depth

Station Depth Elevation

Earthquake Activity

City Distance Mag. Time & Date
Minimum magnitude displayed is 2.5.

Coastal Water Temperatures

Place Temperature

Stations

Nearby Weather Stations

Station Location Temp. Windchill Dew Point Humidity Wind Precip. Elev Updated Type